createdAt,value
2022-08-23T00:01:46.703Z,14.63
2022-08-23T00:04:20.259Z,17.73
2022-08-23T00:06:49.239Z,12.65
2022-08-23T00:09:18.160Z,15.52
2022-08-23T00:11:56.196Z,15.80
2022-08-23T00:14:28.432Z,12.48
2022-08-23T00:16:57.463Z,16.83
2022-08-23T00:19:25.852Z,13.98
2022-08-23T00:21:55.123Z,20.45
2022-08-23T00:24:24.734Z,11.07
2022-08-23T00:27:14.535Z,9.77
2022-08-23T00:29:47.487Z,8.50
2022-08-23T00:32:24.592Z,8.63
2022-08-23T00:34:52.401Z,14.68
2022-08-23T00:37:21.529Z,14.70
2022-08-23T00:39:49.147Z,17.70
2022-08-23T00:43:06.007Z,10.57
2022-08-23T00:46:11.233Z,15.57
2022-08-23T00:48:39.899Z,13.38
2022-08-23T00:51:28.221Z,14.07
2022-08-23T00:53:59.460Z,13.45
2022-08-23T00:56:30.509Z,13.40
2022-08-23T00:58:58.272Z,14.15
2022-08-23T01:01:26.086Z,11.32
2022-08-23T01:04:04.558Z,14.38
2022-08-23T01:07:19.113Z,15.00
2022-08-23T01:09:49.522Z,13.95
2022-08-23T01:12:32.722Z,12.65
2022-08-23T01:15:29.445Z,17.38
2022-08-23T01:18:03.941Z,16.70
2022-08-23T01:20:58.631Z,9.82
2022-08-23T01:23:49.736Z,13.35
2022-08-23T01:26:22.097Z,11.50
2022-08-23T01:28:49.827Z,14.88
2022-08-23T01:31:18.598Z,11.45
2022-08-23T01:33:51.435Z,10.88
2022-08-23T01:36:18.423Z,11.07
2022-08-23T01:38:45.604Z,12.43
2022-08-23T01:41:12.939Z,13.02
2022-08-23T01:43:42.784Z,12.02
2022-08-23T01:46:20.026Z,12.75
2022-08-23T01:48:49.552Z,12.52
2022-08-23T01:51:19.351Z,13.13
2022-08-23T01:53:46.855Z,10.90
2022-08-23T01:56:15.679Z,15.75
2022-08-23T01:58:42.859Z,12.15
2022-08-23T02:01:09.840Z,11.15
2022-08-23T02:03:39.797Z,12.82
2022-08-23T02:06:08.357Z,16.35
2022-08-23T02:08:53.624Z,11.05
2022-08-23T02:11:23.061Z,9.98
2022-08-23T02:13:53.395Z,12.85
2022-08-23T02:16:42.739Z,12.77
2022-08-23T02:19:23.476Z,10.10
2022-08-23T02:21:50.680Z,10.05
2022-08-23T02:24:22.876Z,13.75
2022-08-23T02:26:56.818Z,13.63
2022-08-23T02:29:29.023Z,10.30
2022-08-23T02:31:58.304Z,14.75
2022-08-23T02:34:29.679Z,10.20
2022-08-23T02:36:56.755Z,13.98
2022-08-23T02:39:24.236Z,14.88
2022-08-23T02:41:51.905Z,13.10
2022-08-23T02:44:19.984Z,14.23
2022-08-23T02:46:47.577Z,13.88
2022-08-23T02:49:15.721Z,14.07
2022-08-23T02:51:42.840Z,11.43
2022-08-23T02:54:10.108Z,16.15
2022-08-23T02:56:37.609Z,13.43
2022-08-23T02:59:06.073Z,12.10
2022-08-23T03:01:38.622Z,15.93
2022-08-23T03:04:09.692Z,14.88
2022-08-23T03:06:38.105Z,14.50
2022-08-23T03:09:07.187Z,15.45
2022-08-23T03:11:35.870Z,17.30
2022-08-23T03:14:02.898Z,15.23
2022-08-23T03:16:30.613Z,16.20
2022-08-23T03:18:57.656Z,15.10
2022-08-23T03:21:24.660Z,10.20
2022-08-23T03:23:51.881Z,11.35
2022-08-23T03:26:18.959Z,11.18
2022-08-23T03:28:47.148Z,11.43
2022-08-23T03:31:15.906Z,15.85
2022-08-23T03:33:43.600Z,13.80
2022-08-23T03:36:12.110Z,13.63
2022-08-23T03:38:40.972Z,14.57
2022-08-23T03:41:09.395Z,10.70
2022-08-23T03:43:37.559Z,11.20
2022-08-23T03:46:06.178Z,9.55
2022-08-23T03:48:33.218Z,16.45
2022-08-23T03:51:00.306Z,11.10
2022-08-23T03:53:27.403Z,19.13
2022-08-23T03:55:56.358Z,11.20
2022-08-23T03:58:24.335Z,13.70
2022-08-23T04:00:51.281Z,12.38
2022-08-23T04:03:18.291Z,12.82
2022-08-23T04:05:46.247Z,13.02
2022-08-23T04:08:14.042Z,14.85
2022-08-23T04:10:45.057Z,13.23
2022-08-23T04:13:11.961Z,15.88
2022-08-23T04:15:39.083Z,13.35
2022-08-23T04:18:07.661Z,10.57
2022-08-23T04:20:37.009Z,16.40
2022-08-23T04:23:03.978Z,21.48
2022-08-23T04:25:35.489Z,16.65
2022-08-23T04:28:04.079Z,13.48
2022-08-23T04:30:32.515Z,14.95
2022-08-23T04:32:59.626Z,12.90
2022-08-23T04:35:29.887Z,11.88
2022-08-23T04:37:56.912Z,11.68
2022-08-23T04:40:42.685Z,14.30
2022-08-23T04:43:09.737Z,14.43
2022-08-23T04:45:41.024Z,14.00
2022-08-23T04:48:11.991Z,15.18
2022-08-23T04:50:40.196Z,18.02
2022-08-23T04:53:07.396Z,16.35
2022-08-23T04:55:36.577Z,14.88
2022-08-23T04:58:04.779Z,11.27
2022-08-23T05:00:31.918Z,15.90
2022-08-23T05:02:58.897Z,18.58
2022-08-23T05:05:27.272Z,30.73
2022-08-23T05:07:55.143Z,16.58
2022-08-23T05:10:22.405Z,13.23
2022-08-23T05:12:49.334Z,15.93
2022-08-23T05:15:16.686Z,17.15
2022-08-23T05:17:43.974Z,14.38
2022-08-23T05:20:11.368Z,25.90
2022-08-23T05:22:41.628Z,15.13
2022-08-23T05:25:09.292Z,19.08
2022-08-23T05:27:36.571Z,23.00
2022-08-23T05:30:05.315Z,18.10
2022-08-23T05:32:33.629Z,20.40
2022-08-23T05:35:01.371Z,25.35
2022-08-23T05:37:28.682Z,15.65
2022-08-23T05:39:55.654Z,14.00
2022-08-23T05:42:22.776Z,13.88
2022-08-23T05:44:49.705Z,24.55
2022-08-23T05:47:17.697Z,16.23
2022-08-23T05:49:51.993Z,22.40
2022-08-23T05:52:18.899Z,24.92
2022-08-23T05:54:45.988Z,18.23
2022-08-23T05:57:12.886Z,21.80
2022-08-23T05:59:41.924Z,14.93
2022-08-23T06:02:09.472Z,16.23
2022-08-23T06:04:36.435Z,15.98
2022-08-23T06:07:03.881Z,16.10
2022-08-23T06:09:30.845Z,14.95
2022-08-23T06:11:58.738Z,16.13
2022-08-23T06:14:25.801Z,15.40
2022-08-23T06:16:56.044Z,18.33
2022-08-23T06:19:24.175Z,17.00
2022-08-23T06:21:52.305Z,17.02
2022-08-23T06:24:20.033Z,18.73
2022-08-23T06:26:47.300Z,19.52
2022-08-23T06:29:19.028Z,19.35
2022-08-23T06:31:50.484Z,22.25
2022-08-23T06:34:27.282Z,17.73
2022-08-23T06:36:58.337Z,16.70
2022-08-23T06:39:27.997Z,21.15
2022-08-23T06:42:37.962Z,15.43
2022-08-23T06:45:05.336Z,15.93
2022-08-23T06:47:32.349Z,16.33
2022-08-23T06:49:59.271Z,26.08
2022-08-23T06:52:27.546Z,16.52
2022-08-23T06:54:54.944Z,23.10
2022-08-23T06:57:22.348Z,23.58
2022-08-23T06:59:49.985Z,18.50
2022-08-23T07:02:17.242Z,20.65
2022-08-23T07:04:44.889Z,22.00
2022-08-23T07:07:12.574Z,19.42
2022-08-23T07:09:40.774Z,24.35
2022-08-23T07:12:08.275Z,19.55
2022-08-23T07:14:37.013Z,20.75
2022-08-23T07:17:05.081Z,21.75
2022-08-23T07:19:34.870Z,24.02
2022-08-23T07:22:05.024Z,19.58
2022-08-23T07:24:33.781Z,17.70
2022-08-23T07:27:07.065Z,21.33
2022-08-23T07:29:36.415Z,23.60
2022-08-23T07:32:04.185Z,19.73
2022-08-23T07:34:31.305Z,18.75
2022-08-23T07:36:58.205Z,21.33
2022-08-23T07:39:26.576Z,18.88
2022-08-23T07:41:53.751Z,24.90
2022-08-23T07:44:23.506Z,24.98
2022-08-23T07:46:55.031Z,20.00
2022-08-23T07:49:23.000Z,14.27
2022-08-23T07:51:58.734Z,20.33
2022-08-23T07:54:26.056Z,20.83
2022-08-23T07:56:53.037Z,14.55
2022-08-23T07:59:19.956Z,19.60
2022-08-23T08:01:47.039Z,19.52
2022-08-23T08:04:14.089Z,18.75
2022-08-23T08:07:04.853Z,16.95
2022-08-23T08:09:37.025Z,10.10
2022-08-23T08:12:04.690Z,14.65
2022-08-23T08:14:31.688Z,18.40
2022-08-23T08:17:00.453Z,15.15
2022-08-23T08:19:27.569Z,10.15
2022-08-23T08:21:54.481Z,11.77
2022-08-23T08:24:21.433Z,14.77
2022-08-23T08:26:48.840Z,14.00
2022-08-23T08:29:15.832Z,17.55
2022-08-23T08:31:45.527Z,11.13
2022-08-23T08:34:13.658Z,10.80
2022-08-23T08:36:46.416Z,13.00
2022-08-23T08:39:19.846Z,10.65
2022-08-23T08:42:07.178Z,12.30
2022-08-23T08:44:58.211Z,11.20
2022-08-23T08:48:10.123Z,11.32
2022-08-23T08:50:53.348Z,6.82
2022-08-23T08:53:47.239Z,11.27
2022-08-23T08:56:20.933Z,10.40
2022-08-23T08:59:00.669Z,9.02
2022-08-23T09:01:31.133Z,7.55
2022-08-23T09:03:58.447Z,10.77
2022-08-23T09:06:53.916Z,6.90
2022-08-23T09:10:03.683Z,11.05
2022-08-23T09:13:18.046Z,6.75
2022-08-23T09:16:20.285Z,5.78
2022-08-23T09:18:48.314Z,8.43
2022-08-23T09:21:16.664Z,4.68
2022-08-23T09:23:49.005Z,4.68
2022-08-23T09:26:31.089Z,6.13
2022-08-23T09:29:14.075Z,4.32
2022-08-23T09:31:53.025Z,5.00
2022-08-23T09:34:42.381Z,7.72
2022-08-23T09:37:22.968Z,4.85
2022-08-23T09:40:16.481Z,4.63
2022-08-23T09:42:43.780Z,5.03
2022-08-23T09:45:35.658Z,5.40
2022-08-23T09:48:04.879Z,8.80
2022-08-23T09:50:43.231Z,2.28
2022-08-23T09:53:14.408Z,5.03
2022-08-23T09:55:43.473Z,3.88
2022-08-23T09:58:36.682Z,4.20
2022-08-23T10:01:32.584Z,4.97
2022-08-23T10:04:23.107Z,2.65
2022-08-23T10:06:51.216Z,1.70
2022-08-23T10:09:33.408Z,2.92
2022-08-23T10:12:01.625Z,1.67
2022-08-23T10:14:32.921Z,4.53
2022-08-23T10:17:13.183Z,4.28
2022-08-23T10:20:18.120Z,2.42
2022-08-23T10:23:15.437Z,2.20
2022-08-23T10:25:59.091Z,3.05
2022-08-23T10:29:10.627Z,4.90
2022-08-23T10:32:09.704Z,4.45
2022-08-23T10:34:54.682Z,4.13
2022-08-23T10:38:11.212Z,2.70
2022-08-23T10:40:49.232Z,2.92
2022-08-23T10:43:44.944Z,2.25
2022-08-23T10:46:13.077Z,2.00
2022-08-23T10:48:55.532Z,1.60
2022-08-23T10:51:37.137Z,2.67
2022-08-23T10:54:18.783Z,3.17
2022-08-23T10:56:50.908Z,3.75
2022-08-23T10:59:23.955Z,1.30
2022-08-23T11:02:53.031Z,4.40
2022-08-23T11:05:27.173Z,3.28
2022-08-23T11:08:05.965Z,2.40
2022-08-23T11:10:39.205Z,2.22
2022-08-23T11:13:20.802Z,4.05
2022-08-23T11:16:21.017Z,5.95
2022-08-23T11:18:50.560Z,4.53
2022-08-23T11:21:37.471Z,2.25
2022-08-23T11:24:04.340Z,6.93
2022-08-23T11:26:38.028Z,4.97
2022-08-23T11:29:07.972Z,1.33
2022-08-23T11:31:43.038Z,1.88
2022-08-23T11:34:19.671Z,2.65
2022-08-23T11:37:20.190Z,3.55
2022-08-23T11:39:59.227Z,3.33
2022-08-23T11:42:52.397Z,3.28
2022-08-23T11:45:46.442Z,1.60
2022-08-23T11:48:43.598Z,1.83
2022-08-23T11:51:38.212Z,3.13
2022-08-23T11:54:35.637Z,2.67
2022-08-23T11:57:52.171Z,4.30
2022-08-23T12:00:50.796Z,3.65
2022-08-23T12:03:33.926Z,4.25
2022-08-23T12:06:19.604Z,3.35
2022-08-23T12:09:02.284Z,2.85
2022-08-23T12:11:54.918Z,2.67
2022-08-23T12:14:56.305Z,3.03
2022-08-23T12:17:25.892Z,3.30
2022-08-23T12:20:16.979Z,4.43
2022-08-23T12:22:59.576Z,2.80
2022-08-23T12:25:27.289Z,3.47
2022-08-23T12:28:48.095Z,1.38
2022-08-23T12:31:37.963Z,5.22
2022-08-23T12:34:26.561Z,3.15
2022-08-23T12:37:09.457Z,4.72
2022-08-23T12:39:46.894Z,1.90
2022-08-23T12:42:36.524Z,2.85
2022-08-23T12:45:11.658Z,2.00
2022-08-23T12:47:43.076Z,1.30
2022-08-23T12:50:13.126Z,2.35
2022-08-23T12:52:40.328Z,3.97
2022-08-23T12:55:18.472Z,3.33
2022-08-23T12:57:55.224Z,4.10
2022-08-23T13:00:26.046Z,1.88
2022-08-23T13:03:24.090Z,3.42
2022-08-23T13:06:16.771Z,4.05
2022-08-23T13:09:07.477Z,3.85
2022-08-23T13:11:36.462Z,4.63
2022-08-23T13:14:34.446Z,1.60
2022-08-23T13:17:26.043Z,4.18
2022-08-23T13:20:01.854Z,1.52
2022-08-23T13:22:31.343Z,1.30
2022-08-23T13:25:32.931Z,2.35
2022-08-23T13:27:57.721Z,1.85
2022-08-23T13:30:37.703Z,3.25
2022-08-23T13:33:07.800Z,1.35
2022-08-23T13:35:45.658Z,2.88
2022-08-23T13:38:21.215Z,2.55
2022-08-23T13:41:03.749Z,4.75
2022-08-23T13:43:51.034Z,3.00
2022-08-23T13:46:27.982Z,4.50
2022-08-23T13:49:13.542Z,6.20
2022-08-23T13:51:45.601Z,6.45
2022-08-23T13:54:15.518Z,2.40
2022-08-23T13:56:50.787Z,2.25
2022-08-23T13:59:25.265Z,2.30
2022-08-23T14:02:02.879Z,2.10
2022-08-23T14:04:29.924Z,3.85
2022-08-23T14:06:56.864Z,1.73
2022-08-23T14:09:23.815Z,3.65
2022-08-23T14:11:55.914Z,3.22
2022-08-23T14:14:24.384Z,2.13
2022-08-23T14:16:54.292Z,7.15
2022-08-23T14:22:08.214Z,5.10
2022-08-23T14:24:35.171Z,4.25
2022-08-23T14:27:02.389Z,3.33
2022-08-23T14:29:29.674Z,1.98
2022-08-23T14:31:59.146Z,2.08
2022-08-23T14:34:27.815Z,4.78
2022-08-23T14:39:42.252Z,2.22
2022-08-23T14:42:09.919Z,3.47
2022-08-23T14:44:36.916Z,3.63
2022-08-23T14:47:05.851Z,1.80
2022-08-23T14:49:33.945Z,5.38
2022-08-23T14:52:01.052Z,3.30
2022-08-23T14:54:28.099Z,2.92
2022-08-23T14:56:55.136Z,2.67
2022-08-23T14:59:22.127Z,2.03
2022-08-23T15:01:50.692Z,5.25
2022-08-23T15:04:21.040Z,2.00
2022-08-23T15:07:13.875Z,5.55
2022-08-23T15:09:35.949Z,2.80
2022-08-23T15:14:50.491Z,2.63
2022-08-23T15:17:17.551Z,4.88
2022-08-23T15:19:44.554Z,1.70
2022-08-23T15:22:18.715Z,4.00
2022-08-23T15:24:48.890Z,4.82
2022-08-23T15:27:24.478Z,3.05
2022-08-23T15:29:51.458Z,3.35
2022-08-23T15:32:22.293Z,1.80
2022-08-23T15:34:50.546Z,3.38
2022-08-23T15:37:20.559Z,3.90
2022-08-23T15:39:47.555Z,3.45
2022-08-23T15:42:20.137Z,1.92
2022-08-23T15:44:48.945Z,2.63
2022-08-23T15:47:25.448Z,2.60
2022-08-23T15:49:52.391Z,2.80
2022-08-23T15:52:20.044Z,3.35
2022-08-23T15:54:50.013Z,2.67
2022-08-23T15:57:24.389Z,4.82
2022-08-23T15:59:57.545Z,1.98
2022-08-23T16:02:24.808Z,2.08
2022-08-23T16:04:51.738Z,2.17
2022-08-23T16:07:18.915Z,1.83
2022-08-23T16:09:45.881Z,3.13
2022-08-23T16:12:12.838Z,5.05
2022-08-23T16:14:39.806Z,2.92
2022-08-23T16:17:08.405Z,2.20
2022-08-23T16:19:35.315Z,3.63
2022-08-23T16:22:03.056Z,1.77
2022-08-23T16:24:30.056Z,3.03
2022-08-23T16:26:57.191Z,2.03
2022-08-23T16:29:24.300Z,1.40
2022-08-23T16:31:51.944Z,2.15
2022-08-23T16:34:20.457Z,2.92
2022-08-23T16:36:56.425Z,3.72
2022-08-23T16:39:25.987Z,2.13
2022-08-23T16:41:52.958Z,4.70
2022-08-23T16:44:20.097Z,3.75
2022-08-23T16:46:47.735Z,2.33
2022-08-23T16:49:17.416Z,2.45
2022-08-23T16:51:45.210Z,1.88
2022-08-23T16:54:12.836Z,1.80
2022-08-23T16:56:40.955Z,4.00
2022-08-23T16:59:10.605Z,3.78
2022-08-23T17:01:51.158Z,7.40
2022-08-23T17:04:20.425Z,2.28
2022-08-23T17:06:47.929Z,4.70
2022-08-23T17:09:14.981Z,2.60
2022-08-23T17:11:43.985Z,3.88
2022-08-23T17:14:12.647Z,1.75
2022-08-23T17:16:41.677Z,2.53
2022-08-23T17:19:08.832Z,2.13
2022-08-23T17:21:36.042Z,3.65
2022-08-23T17:24:03.737Z,2.75
2022-08-23T17:26:31.497Z,1.63
2022-08-23T17:28:58.493Z,4.03
2022-08-23T17:31:27.041Z,4.07
2022-08-23T17:33:54.734Z,2.10
2022-08-23T17:36:38.031Z,3.40
2022-08-23T17:39:10.675Z,2.28
2022-08-23T17:41:40.961Z,1.23
2022-08-23T17:44:10.327Z,0.90
2022-08-23T17:46:41.513Z,3.20
2022-08-23T17:49:09.428Z,0.70
2022-08-23T17:51:37.223Z,1.05
2022-08-23T17:54:05.291Z,2.30
2022-08-23T17:56:32.261Z,2.72
2022-08-23T17:59:00.195Z,2.00
2022-08-23T18:01:27.379Z,5.05
2022-08-23T18:03:54.639Z,5.68
2022-08-23T18:06:22.253Z,6.38
2022-08-23T18:08:49.172Z,2.80
2022-08-23T18:11:16.602Z,1.77
2022-08-23T18:13:43.651Z,1.35
2022-08-23T18:16:10.612Z,0.90
2022-08-23T18:18:37.992Z,2.45
2022-08-23T18:21:09.757Z,1.77
2022-08-23T18:23:37.230Z,0.65
2022-08-23T18:26:31.753Z,1.45
2022-08-23T18:29:00.442Z,2.55
2022-08-23T18:31:27.686Z,3.33
2022-08-23T18:34:00.199Z,1.55
2022-08-23T18:36:29.642Z,2.70
2022-08-23T18:38:57.336Z,2.22
2022-08-23T18:41:24.462Z,3.75
2022-08-23T18:43:51.595Z,2.83
2022-08-23T18:46:18.950Z,3.88
2022-08-23T18:48:53.304Z,1.67
2022-08-23T18:51:22.299Z,2.35
2022-08-23T18:53:49.498Z,3.15
2022-08-23T18:56:16.726Z,1.95
2022-08-23T18:58:43.947Z,3.45
2022-08-23T19:01:31.768Z,3.08
2022-08-23T19:04:01.916Z,3.30
2022-08-23T19:06:29.956Z,3.53
2022-08-23T19:08:57.675Z,0.88
2022-08-23T19:11:24.921Z,5.55
2022-08-23T19:13:51.871Z,3.60
2022-08-23T19:16:20.363Z,3.08
2022-08-23T19:18:50.177Z,1.27
2022-08-23T19:21:20.719Z,3.63
2022-08-23T19:23:50.346Z,1.48
2022-08-23T19:26:22.130Z,2.35
2022-08-23T19:28:49.627Z,2.70
2022-08-23T19:31:17.210Z,2.53
2022-08-23T19:33:44.433Z,4.55
2022-08-23T19:36:29.261Z,1.38
2022-08-23T19:38:58.644Z,3.90
2022-08-23T19:41:25.728Z,5.88
2022-08-23T19:43:52.663Z,4.45
2022-08-23T19:46:19.917Z,2.35
2022-08-23T19:48:48.196Z,5.45
2022-08-23T19:51:18.302Z,2.28
2022-08-23T19:54:04.858Z,2.08
2022-08-23T19:56:57.537Z,2.38
2022-08-23T19:59:35.010Z,6.22
2022-08-23T20:02:02.999Z,3.97
2022-08-23T20:04:32.338Z,4.70
2022-08-23T20:07:01.379Z,3.83
2022-08-23T20:09:31.561Z,3.92
2022-08-23T20:11:59.554Z,3.55
2022-08-23T20:14:28.553Z,3.35
2022-08-23T20:16:56.023Z,2.53
2022-08-23T20:19:23.392Z,2.35
2022-08-23T20:21:50.773Z,3.35
2022-08-23T20:24:28.850Z,2.90
2022-08-23T20:27:06.015Z,3.72
2022-08-23T20:29:32.962Z,4.00
2022-08-23T20:32:00.321Z,2.72
2022-08-23T20:34:28.305Z,3.08
2022-08-23T20:36:56.114Z,2.95
2022-08-23T20:39:24.656Z,2.50
2022-08-23T20:41:53.162Z,6.05
2022-08-23T20:44:22.486Z,4.35
2022-08-23T20:46:53.916Z,3.72
2022-08-23T20:49:23.538Z,3.25
2022-08-23T20:51:51.000Z,7.25
2022-08-23T20:54:18.248Z,1.83
2022-08-23T20:56:45.746Z,2.97
2022-08-23T20:59:15.661Z,2.63
2022-08-23T21:01:44.309Z,3.03
2022-08-23T21:04:12.634Z,4.10
2022-08-23T21:06:47.921Z,3.55
2022-08-23T21:09:19.366Z,3.97
2022-08-23T21:11:48.156Z,2.40
2022-08-23T21:14:17.116Z,6.20
2022-08-23T21:16:45.481Z,4.40
2022-08-23T21:19:13.604Z,5.80
2022-08-23T21:21:41.316Z,5.22
2022-08-23T21:24:10.237Z,7.70
2022-08-23T21:26:38.712Z,4.07
2022-08-23T21:29:07.787Z,2.83
2022-08-23T21:31:35.084Z,2.95
2022-08-23T21:34:02.358Z,5.05
2022-08-23T21:36:29.638Z,3.75
2022-08-23T21:38:56.665Z,5.93
2022-08-23T21:41:44.718Z,3.35
2022-08-23T21:44:16.071Z,4.82
2022-08-23T21:46:44.916Z,5.60
2022-08-23T21:49:12.729Z,5.05
2022-08-23T21:51:41.260Z,5.03
2022-08-23T21:54:10.754Z,3.05
2022-08-23T21:56:38.324Z,3.60
2022-08-23T21:59:10.335Z,4.45
2022-08-23T22:01:37.500Z,4.80
2022-08-23T22:04:08.039Z,3.67
2022-08-23T22:06:35.347Z,3.65
2022-08-23T22:09:04.989Z,7.32
2022-08-23T22:11:31.915Z,5.70
2022-08-23T22:13:58.814Z,6.85
2022-08-23T22:16:26.145Z,2.78
2022-08-23T22:18:53.779Z,4.50
2022-08-23T22:21:20.827Z,3.22
2022-08-23T22:23:47.820Z,4.30
2022-08-23T22:26:14.815Z,4.88
2022-08-23T22:28:44.685Z,2.97
2022-08-23T22:31:16.025Z,5.95
2022-08-23T22:33:45.063Z,5.40
2022-08-23T22:36:18.509Z,2.53
2022-08-23T22:38:46.644Z,3.83
2022-08-23T22:41:22.061Z,4.80
2022-08-23T22:43:48.982Z,4.32
2022-08-23T22:46:16.055Z,3.20
2022-08-23T22:48:43.228Z,2.78
2022-08-23T22:51:12.885Z,3.92
2022-08-23T22:53:44.632Z,5.95
2022-08-23T22:56:15.612Z,4.38
2022-08-23T22:58:43.927Z,2.30
2022-08-23T23:01:22.754Z,3.22
2022-08-23T23:03:51.531Z,4.30
2022-08-23T23:06:19.886Z,3.17
2022-08-23T23:08:48.040Z,5.38
2022-08-23T23:11:17.234Z,4.15
2022-08-23T23:13:44.648Z,5.28
2022-08-23T23:16:17.857Z,7.45
2022-08-23T23:19:05.199Z,3.88
2022-08-23T23:21:41.455Z,4.28
2022-08-23T23:24:10.750Z,3.50
2022-08-23T23:26:38.277Z,5.80
2022-08-23T23:29:06.453Z,2.20
2022-08-23T23:31:34.706Z,4.80
2022-08-23T23:34:01.616Z,5.03
2022-08-23T23:36:29.011Z,2.97
2022-08-23T23:38:56.320Z,3.65
2022-08-23T23:41:23.640Z,4.28
2022-08-23T23:43:50.653Z,4.55
2022-08-23T23:46:20.070Z,10.20
2022-08-23T23:48:49.301Z,5.40
2022-08-23T23:51:24.506Z,4.75
2022-08-23T23:53:53.232Z,5.53
2022-08-23T23:56:22.725Z,3.80
2022-08-23T23:58:52.662Z,7.70
